Time;durP1;ratioP1;P1;durP2;ratioP2;P2;SDS_P1;SDS_P2;PMS_P1;PMS_P2;Temp;Humidity;BMP_temperature;BMP_pressure;BME280_temperature;BME280_humidity;BME280_pressure;Samples;Min_cycle;Max_cycle;Signal;HPM_P1;HPM_P2
2022/07/18 00:00:06;;;;;;;;;18.75;17.00;;;;;29.24;25.17;101599.97;2096588;28;47626;-56
2022/07/18 00:01:07;;;;;;;;;16.80;15.00;;;;;29.21;25.34;101598.31;2082468;28;47767;-57
2022/07/18 00:02:07;;;;;;;;;14.50;13.25;;;;;29.21;24.94;101595.59;2083666;28;47514;-56
2022/07/18 00:03:07;;;;;;;;;15.25;15.25;;;;;29.19;25.25;101594.88;2105433;28;48052;-56
2022/07/18 00:04:08;;;;;;;;;14.00;12.75;;;;;29.19;25.08;101594.88;2104871;28;47675;-57
2022/07/18 00:05:08;;;;;;;;;16.25;15.50;;;;;29.19;25.31;101602.19;2105548;28;47841;-57
2022/07/18 00:06:09;;;;;;;;;16.00;16.00;;;;;29.17;25.27;101594.13;2105516;28;47688;-57
2022/07/18 00:07:12;;;;;;;;;18.50;16.00;;;;;29.16;25.26;101589.66;2105467;28;46962;-57
2022/07/18 00:08:12;;;;;;;;;17.80;17.80;;;;;29.16;25.27;101591.53;2105407;28;47912;-53
2022/07/18 00:09:13;;;;;;;;;15.50;14.00;;;;;29.15;25.29;101587.06;2096392;28;47186;-56
2022/07/18 00:10:13;;;;;;;;;13.50;12.00;;;;;29.14;25.49;101588.94;2096765;28;48222;-57
2022/07/18 00:11:14;;;;;;;;;15.25;14.75;;;;;29.14;25.32;101585.34;2104875;28;47481;-57
2022/07/18 00:12:15;;;;;;;;;15.00;12.50;;;;;29.12;25.39;101587.34;2105301;28;47894;-56
2022/07/18 00:13:15;;;;;;;;;15.00;15.00;;;;;29.12;25.49;101584.63;2105496;28;47315;-56
2022/07/18 00:14:16;;;;;;;;;16.00;16.00;;;;;29.11;25.48;101591.09;2105401;28;47446;-56
2022/07/18 00:15:17;;;;;;;;;16.60;16.00;;;;;29.09;25.46;101590.31;2105526;28;47979;-57
2022/07/18 00:16:17;;;;;;;;;16.00;16.00;;;;;29.08;25.41;101589.44;2105196;28;47294;-57
2022/07/18 00:17:18;;;;;;;;;14.00;14.00;;;;;29.07;25.51;101589.59;2105420;28;47903;-55
2022/07/18 00:18:18;;;;;;;;;14.25;14.25;;;;;29.07;25.42;101592.31;2083804;28;47656;-57
2022/07/18 00:19:19;;;;;;;;;16.75;16.75;;;;;29.05;25.81;101587.00;2083293;28;47841;-56
2022/07/18 00:20:19;;;;;;;;;12.75;12.75;;;;;29.05;25.79;101587.00;2096244;28;47184;-56
2022/07/18 00:21:20;;;;;;;;;12.25;12.25;;;;;29.06;25.64;101591.47;2096324;28;47631;-54
2022/07/18 00:22:21;;;;;;;;;12.00;12.00;;;;;29.06;25.51;101591.47;2105387;28;47742;-56
2022/07/18 00:23:21;;;;;;;;;11.75;11.75;;;;;29.06;25.83;101586.00;2105589;28;45045;-56
2022/07/18 00:24:22;;;;;;;;;10.50;10.50;;;;;29.07;25.68;101587.72;2104926;28;47552;-55
2022/07/18 00:25:22;;;;;;;;;10.75;10.50;;;;;29.07;25.83;101582.25;2096846;28;47578;-56
2022/07/18 00:26:23;;;;;;;;;16.00;16.00;;;;;29.06;25.93;101580.53;2100516;28;47383;-57
2022/07/18 00:27:23;;;;;;;;;12.25;11.00;;;;;29.07;25.96;101575.91;2105201;28;47395;-56
2022/07/18 00:28:23;;;;;;;;;10.75;10.75;;;;;29.05;25.56;101576.06;2087193;28;46358;-55
2022/07/18 00:29:24;;;;;;;;;13.00;13.00;;;;;29.04;25.56;101581.66;2087244;28;47371;-56
2022/07/18 00:30:24;;;;;;;;;13.50;13.00;;;;;29.04;25.86;101576.19;2105265;28;47161;-56
2022/07/18 00:31:25;;;;;;;;;16.00;14.50;;;;;29.01;25.75;101575.47;2105120;28;48191;-56
2022/07/18 00:32:25;;;;;;;;;11.50;11.50;;;;;29.00;26.35;101573.72;2105151;28;48071;-56
2022/07/18 00:33:26;;;;;;;;;14.50;14.50;;;;;28.99;26.01;101582.06;2105519;28;47379;-56
2022/07/18 00:34:26;;;;;;;;;15.00;14.00;;;;;28.97;25.91;101576.75;2105126;28;45033;-57
2022/07/18 00:35:26;;;;;;;;;11.50;11.50;;;;;28.94;26.04;101582.44;2105123;28;47567;-57
2022/07/18 00:36:27;;;;;;;;;12.50;12.50;;;;;28.96;26.08;101582.31;2105149;28;47145;-57
2022/07/18 00:37:28;;;;;;;;;12.00;12.00;;;;;28.95;26.18;101583.31;2105117;28;48104;-57
2022/07/18 00:38:29;;;;;;;;;14.75;14.75;;;;;28.93;26.23;101575.25;2105381;28;47286;-58
2022/07/18 00:39:29;;;;;;;;;11.75;11.75;;;;;28.93;25.85;101588.03;2105156;28;47270;-57
2022/07/18 00:40:30;;;;;;;;;9.75;9.75;;;;;28.91;26.31;101577.25;2105267;28;47364;-57
2022/07/18 00:41:31;;;;;;;;;12.60;10.80;;;;;28.92;26.32;101589.91;2096409;28;47355;-55
2022/07/18 00:42:31;;;;;;;;;12.25;10.50;;;;;28.92;26.15;101587.19;2096771;28;45526;-56
2022/07/18 00:43:32;;;;;;;;;9.00;9.00;;;;;28.92;25.92;101578.97;2105291;28;46509;-57
2022/07/18 00:44:32;;;;;;;;;13.75;13.75;;;;;28.92;25.77;101584.44;2079188;28;45160;-57
2022/07/18 00:45:33;;;;;;;;;11.75;11.25;;;;;28.91;26.31;101584.56;2078944;28;47618;-59
2022/07/18 00:46:33;;;;;;;;;10.75;10.75;;;;;28.91;26.07;101584.56;2105200;28;48129;-56
2022/07/18 00:47:34;;;;;;;;;12.00;12.00;;;;;28.90;26.16;101580.13;2096374;28;46306;-55
2022/07/18 00:48:34;;;;;;;;;9.50;7.75;;;;;28.89;26.30;101576.50;2092417;28;47697;-57
2022/07/18 00:49:35;;;;;;;;;12.00;10.75;;;;;28.89;26.34;101575.66;2096415;28;47228;-55
2022/07/18 00:50:35;;;;;;;;;11.75;11.50;;;;;28.89;26.62;101572.91;2105022;28;47083;-56
2022/07/18 00:51:38;;;;;;;;;12.25;11.50;;;;;28.88;26.34;101577.50;2105114;28;47645;-57
2022/07/18 00:52:38;;;;;;;;;11.60;10.40;;;;;28.87;26.17;101574.88;2104841;28;47932;-55
2022/07/18 00:53:39;;;;;;;;;12.00;12.00;;;;;28.88;26.14;101576.66;2105166;28;47541;-54
2022/07/18 00:54:40;;;;;;;;;10.50;10.50;;;;;28.86;26.06;101573.16;2100356;28;46589;-54
2022/07/18 00:55:44;;;;;;;;;12.20;10.60;;;;;28.87;26.58;101574.88;2105130;28;46434;-56
2022/07/18 00:56:47;;;;;;;;;11.80;11.80;;;;;28.86;26.56;101574.00;2104939;28;47562;-56
2022/07/18 00:57:47;;;;;;;;;11.20;9.60;;;;;28.86;26.31;101574.00;2091236;28;47459;-55
2022/07/18 00:58:48;;;;;;;;;11.50;10.75;;;;;28.86;26.46;101575.88;2095930;28;47637;-53
2022/07/18 01:02:27;;;;;;;;;11.40;10.60;;;;;28.84;26.32;101584.22;2105170;28;47511;-56
2022/07/18 01:03:28;;;;;;;;;12.50;11.25;;;;;28.84;26.42;101575.13;2104862;28;48031;-56
2022/07/18 01:04:28;;;;;;;;;10.50;10.50;;;;;28.82;26.08;101578.00;2104978;28;47158;-57
2022/07/18 01:05:29;;;;;;;;;10.50;10.50;;;;;28.81;26.41;101576.25;2104971;28;48246;-57
2022/07/18 01:06:29;;;;;;;;;10.00;9.75;;;;;28.81;26.48;101579.00;2105206;28;47359;-56
2022/07/18 01:07:30;;;;;;;;;11.00;10.75;;;;;28.80;26.61;101577.25;2105074;28;47738;-56
2022/07/18 01:08:30;;;;;;;;;10.25;10.25;;;;;28.81;26.50;101569.94;2099423;28;47706;-56
2022/07/18 01:09:32;;;;;;;;;9.50;9.25;;;;;28.81;26.58;101572.66;2105005;28;47283;-57
2022/07/18 01:10:32;;;;;;;;;8.00;8.00;;;;;28.80;26.46;101566.31;2105058;28;47679;-56
2022/07/18 01:11:34;;;;;;;;;10.00;10.00;;;;;28.80;26.55;101568.19;2095910;28;47053;-55
2022/07/18 01:12:35;;;;;;;;;12.40;10.00;;;;;28.79;26.16;101574.66;2096277;28;46740;-56
2022/07/18 01:13:37;;;;;;;;;10.75;10.75;;;;;28.79;26.39;101570.06;2105132;28;47919;-55
2022/07/18 01:14:38;;;;;;;;;9.40;8.40;;;;;28.80;26.40;101565.47;2105095;28;47943;-56
2022/07/18 01:15:38;;;;;;;;;10.25;9.00;;;;;28.78;26.75;101573.78;2104754;28;47543;-56
2022/07/18 01:16:39;;;;;;;;;8.00;8.00;;;;;28.78;26.73;101572.94;2105055;28;47637;-55
2022/07/18 01:17:39;;;;;;;;;8.00;8.00;;;;;28.78;26.54;101575.66;2104888;28;47204;-56
2022/07/18 01:18:44;;;;;;;;;10.25;10.25;;;;;28.76;26.36;101564.88;2105081;28;46781;-56
2022/07/18 01:19:46;;;;;;;;;7.60;7.60;;;;;28.76;26.55;101569.47;2104826;28;48306;-55
2022/07/18 01:20:46;;;;;;;;;6.40;6.40;;;;;28.74;26.37;101569.59;2104839;28;48382;-56
2022/07/18 01:21:47;;;;;;;;;8.00;8.00;;;;;28.72;26.67;101568.88;2105107;28;47339;-56
2022/07/18 01:22:47;;;;;;;;;11.75;11.50;;;;;28.70;26.27;101568.97;2104636;28;47963;-57
2022/07/18 01:23:47;;;;;;;;;9.00;9.00;;;;;28.69;26.49;101569.09;2105084;28;47573;-57
2022/07/18 01:24:48;;;;;;;;;8.25;8.25;;;;;28.68;26.14;101575.56;2104883;28;47348;-55
2022/07/18 01:25:49;;;;;;;;;10.25;9.50;;;;;28.67;26.79;101579.28;2104966;28;46235;-53
2022/07/18 01:26:49;;;;;;;;;7.25;6.00;;;;;28.65;26.62;101571.22;2104073;28;48111;-57
2022/07/18 01:27:49;;;;;;;;;9.25;9.00;;;;;28.64;26.52;101564.03;2103335;28;47999;-57
2022/07/18 01:28:50;;;;;;;;;5.25;5.25;;;;;28.61;26.59;101569.75;2105193;28;47234;-55
2022/07/18 01:29:52;;;;;;;;;9.75;9.75;;;;;28.61;26.40;101568.91;2104957;28;47820;-55
2022/07/18 01:30:53;;;;;;;;;8.40;8.40;;;;;28.58;26.52;101570.00;2104919;28;47683;-56
2022/07/18 01:31:53;;;;;;;;;8.75;7.75;;;;;28.58;26.71;101571.88;2104851;28;47277;-56
2022/07/18 01:32:59;;;;;;;;;8.00;8.00;;;;;28.56;26.22;101572.00;2105222;28;47582;-57
2022/07/18 01:34:01;;;;;;;;;7.80;7.40;;;;;28.56;26.46;101577.47;2096479;28;45915;-57
2022/07/18 01:35:02;;;;;;;;;7.00;7.00;;;;;28.56;27.02;101568.41;2088037;28;47328;-57
2022/07/18 01:36:05;;;;;;;;;7.00;7.00;;;;;28.56;26.89;101576.59;2087554;28;47462;-58
2022/07/18 01:37:06;;;;;;;;;8.00;8.00;;;;;28.56;26.56;101573.84;2062623;28;46198;-57
2022/07/18 01:38:07;;;;;;;;;8.40;8.40;;;;;28.56;27.15;101571.13;2071090;28;47736;-56
2022/07/18 01:39:07;;;;;;;;;6.75;6.75;;;;;28.55;26.61;101578.47;2104616;28;48002;-56
2022/07/18 01:40:09;;;;;;;;;5.50;5.50;;;;;28.54;26.95;101576.72;2105022;28;47453;-57
2022/07/18 01:41:09;;;;;;;;;6.60;6.60;;;;;28.51;26.70;101577.00;2104953;28;47609;-58
2022/07/18 01:42:11;;;;;;;;;7.00;7.00;;;;;28.51;26.44;101587.91;2104796;28;47415;-58
2022/07/18 01:43:11;;;;;;;;;7.40;7.00;;;;;28.49;27.00;101581.72;2095778;28;47423;-55
2022/07/18 01:44:12;;;;;;;;;7.75;7.75;;;;;28.48;26.85;101576.38;2095814;28;47397;-57
2022/07/18 01:45:13;;;;;;;;;7.50;7.00;;;;;28.47;26.64;101577.38;2104966;28;47780;-56
2022/07/18 01:46:13;;;;;;;;;7.50;7.50;;;;;28.45;26.91;101574.75;2104879;28;47312;-57
2022/07/18 01:47:14;;;;;;;;;9.00;7.75;;;;;28.44;26.72;101573.88;2104866;28;47478;-56
2022/07/18 01:48:15;;;;;;;;;7.25;7.00;;;;;28.43;26.52;101569.44;2103346;28;47326;-56
2022/07/18 01:49:15;;;;;;;;;6.20;6.00;;;;;28.42;26.64;101573.16;2095784;28;47535;-55
2022/07/18 01:50:16;;;;;;;;;7.75;7.75;;;;;28.41;27.04;101563.22;2104812;28;48194;-57
2022/07/18 01:51:17;;;;;;;;;7.60;6.60;;;;;28.41;27.12;101565.09;2104465;28;48103;-57
2022/07/18 01:52:17;;;;;;;;;8.50;8.25;;;;;28.41;26.94;101565.09;2104856;28;47886;-56
2022/07/18 01:53:18;;;;;;;;;7.25;7.25;;;;;28.40;26.54;101566.09;2104916;28;47653;-56
2022/07/18 01:54:23;;;;;;;;;7.50;7.50;;;;;28.40;26.62;101563.38;2102723;28;47775;-57
2022/07/18 01:55:23;;;;;;;;;8.00;8.00;;;;;28.37;27.21;101559.03;2103199;28;48130;-57
2022/07/18 01:56:24;;;;;;;;;7.75;7.00;;;;;28.35;27.24;101561.03;2104643;28;47203;-56
2022/07/18 01:57:24;;;;;;;;;7.00;7.00;;;;;28.36;27.34;101564.63;2095815;28;45616;-56
2022/07/18 01:58:25;;;;;;;;;10.00;8.25;;;;;28.35;27.35;101560.16;2095731;28;47492;-57
2022/07/18 01:59:25;;;;;;;;;5.00;5.00;;;;;28.35;26.95;101551.97;2103764;27;47406;-57
2022/07/18 02:00:26;;;;;;;;;8.50;8.50;;;;;28.34;27.09;101555.69;2104665;28;47776;-55
2022/07/18 02:01:27;;;;;;;;;7.75;7.75;;;;;28.34;27.02;101558.44;2107530;27;47537;-56
2022/07/18 02:02:27;;;;;;;;;7.00;7.00;;;;;28.33;26.96;101553.94;2104039;28;47786;-56
2022/07/18 02:03:27;;;;;;;;;9.00;8.75;;;;;28.31;27.52;101551.34;2104723;28;47570;-57
2022/07/18 02:05:47;;;;;;;;;3.40;3.40;;;;;28.30;26.94;101554.19;2104637;28;47835;-55
2022/07/18 02:06:47;;;;;;;;;6.75;6.75;;;;;28.31;26.94;101553.19;2104809;28;47804;-57
2022/07/18 02:07:48;;;;;;;;;6.75;6.75;;;;;28.30;27.53;101546.00;2104912;28;47727;-54
2022/07/18 02:08:48;;;;;;;;;7.00;7.00;;;;;28.31;26.99;101545.88;2104859;28;47655;-56
2022/07/18 02:09:49;;;;;;;;;8.00;8.00;;;;;28.29;27.52;101538.81;2104845;28;46675;-56
2022/07/18 02:10:49;;;;;;;;;6.00;6.00;;;;;28.28;27.41;101531.63;2104687;28;47738;-56
2022/07/18 02:11:50;;;;;;;;;8.75;8.75;;;;;28.27;27.43;101527.16;2095749;28;47454;-56
2022/07/18 02:12:50;;;;;;;;;7.75;7.75;;;;;28.26;27.53;101537.19;2095765;28;48043;-55
2022/07/18 02:13:51;;;;;;;;;6.00;6.00;;;;;28.24;26.99;101531.00;2104569;28;47599;-55
2022/07/18 02:14:51;;;;;;;;;8.40;8.00;;;;;28.23;27.44;101532.00;2104665;28;47416;-54
2022/07/18 02:15:55;;;;;;;;;6.75;6.75;;;;;28.22;27.13;101532.13;2104615;28;46729;-56
2022/07/18 02:16:55;;;;;;;;;7.40;7.40;;;;;28.22;27.71;101537.56;2102283;28;48073;-56
2022/07/18 02:17:56;;;;;;;;;8.50;7.50;;;;;28.22;27.77;101537.56;2104370;28;47053;-57
2022/07/18 02:18:56;;;;;;;;;6.25;6.25;;;;;28.21;27.70;101539.44;2103919;28;47567;-57
2022/07/18 02:19:57;;;;;;;;;8.75;8.75;;;;;28.21;27.53;101536.72;2104671;28;47969;-56
2022/07/18 02:20:59;;;;;;;;;8.00;8.00;;;;;28.22;27.75;101540.31;2104443;28;47864;-57
2022/07/18 02:21:59;;;;;;;;;9.20;9.20;;;;;28.22;27.37;101534.84;2104354;28;47245;-56
2022/07/18 02:22:59;;;;;;;;;2.25;2.25;;;;;28.22;27.06;101529.38;2104397;28;48299;-57
2022/07/18 02:24:00;;;;;;;;;9.00;9.00;;;;;28.22;27.84;101537.56;2104542;28;47348;-57
2022/07/18 02:25:00;;;;;;;;;10.25;8.50;;;;;28.22;27.18;101534.84;2104675;28;48395;-55
2022/07/18 02:26:02;;;;;;;;;9.00;9.00;;;;;28.22;27.45;101538.44;2104637;28;47729;-57
2022/07/18 02:27:04;;;;;;;;;10.00;9.40;;;;;28.21;26.93;101542.16;2104321;28;47658;-56
2022/07/18 02:28:04;;;;;;;;;8.40;8.40;;;;;28.22;26.99;101549.34;2104121;28;45746;-57
2022/07/18 02:29:05;;;;;;;;;5.75;5.25;;;;;28.21;27.43;101550.34;2104369;28;47628;-55
2022/07/18 02:30:07;;;;;;;;;9.00;9.00;;;;;28.22;27.16;101548.50;2104627;28;47448;-56
2022/07/18 02:31:08;;;;;;;;;8.40;7.40;;;;;28.21;27.33;101550.34;2104177;28;47604;-56
2022/07/18 02:32:09;;;;;;;;;7.75;7.00;;;;;28.21;27.10;101553.09;2104181;28;47061;-56
2022/07/18 02:33:10;;;;;;;;;10.00;8.75;;;;;28.22;27.07;101560.28;2104363;28;47306;-55
2022/07/18 02:34:10;;;;;;;;;10.00;8.50;;;;;28.23;27.62;101553.81;2104402;28;47816;-55
2022/07/18 02:35:11;;;;;;;;;10.50;10.50;;;;;28.23;27.51;101548.38;2104422;28;47592;-57
2022/07/18 02:36:11;;;;;;;;;10.50;9.00;;;;;28.26;27.64;101556.28;2103842;28;47994;-56
2022/07/18 02:37:11;;;;;;;;;9.00;9.00;;;;;28.25;27.58;101546.38;2104044;28;47413;-54
2022/07/18 02:38:12;;;;;;;;;11.75;10.25;;;;;28.26;27.92;101548.09;2104507;28;48223;-56
2022/07/18 02:39:12;;;;;;;;;8.50;8.50;;;;;28.27;27.80;101544.41;2094894;28;47301;-57
2022/07/18 02:40:12;;;;;;;;;11.75;9.75;;;;;28.28;27.66;101546.13;2087080;28;47338;-56
2022/07/18 02:41:13;;;;;;;;;9.50;9.50;;;;;28.29;27.73;101545.16;2095520;28;47852;-56
2022/07/18 02:42:13;;;;;;;;;10.75;9.50;;;;;28.30;27.52;101548.75;2094459;28;47554;-56
2022/07/18 02:43:14;;;;;;;;;11.25;11.25;;;;;28.30;27.68;101551.47;2086577;28;47660;-56
2022/07/18 02:44:15;;;;;;;;;9.00;8.00;;;;;28.29;27.37;101547.88;2087082;28;47236;-56
2022/07/18 02:45:15;;;;;;;;;9.75;9.75;;;;;28.30;27.85;101551.47;2094776;28;46485;-55
2022/07/18 02:46:15;;;;;;;;;9.00;9.00;;;;;28.30;27.20;101551.47;2104564;28;47447;-55
2022/07/18 02:47:16;;;;;;;;;12.50;12.00;;;;;28.30;27.58;101551.47;2103861;28;47532;-56
2022/07/18 02:48:16;;;;;;;;;12.50;11.75;;;;;28.30;27.71;101554.19;2104542;28;47182;-57
2022/07/18 02:49:29;;;;;;;;;10.00;10.00;;;;;28.30;27.52;101554.19;2104147;28;47798;-55
2022/07/18 02:50:29;;;;;;;;;8.20;8.20;;;;;28.31;27.71;101559.53;2104375;28;46994;-57
2022/07/18 02:51:30;;;;;;;;;10.00;10.00;;;;;28.31;27.68;101550.47;2095202;28;46899;-56
2022/07/18 02:52:30;;;;;;;;;9.75;8.75;;;;;28.31;27.54;101551.34;2095250;28;47552;-56
2022/07/18 02:53:31;;;;;;;;;11.00;10.50;;;;;28.31;27.38;101556.78;2104356;28;48002;-56
2022/07/18 02:54:34;;;;;;;;;11.25;11.25;;;;;28.31;27.45;101561.38;2100515;28;45766;-57
2022/07/18 02:55:34;;;;;;;;;9.60;9.60;;;;;28.32;27.66;101561.25;2104114;28;47727;-56
2022/07/18 02:56:35;;;;;;;;;9.50;9.50;;;;;28.31;27.36;101562.25;2104470;28;47577;-56
2022/07/18 02:57:36;;;;;;;;;11.00;11.00;;;;;28.32;27.75;101561.25;2102957;28;47492;-57
2022/07/18 02:58:36;;;;;;;;;10.50;10.50;;;;;28.32;27.73;101564.00;2103125;28;46697;-57
2022/07/18 02:59:36;;;;;;;;;11.50;11.00;;;;;28.32;27.72;101571.31;2104700;28;45189;-56
2022/07/18 03:00:37;;;;;;;;;10.50;10.50;;;;;28.32;27.34;101574.91;2104316;28;47949;-56
2022/07/18 03:01:37;;;;;;;;;10.00;10.00;;;;;28.32;27.64;101565.84;2107481;27;46759;-56
2022/07/18 03:02:38;;;;;;;;;13.00;11.25;;;;;28.31;27.71;101569.56;2103904;28;47128;-56
2022/07/18 03:03:39;;;;;;;;;10.80;10.80;;;;;28.30;28.08;101562.38;2104373;28;47477;-55
2022/07/18 03:04:39;;;;;;;;;10.50;9.50;;;;;28.29;28.06;101566.13;2104218;28;47627;-56
2022/07/18 03:05:40;;;;;;;;;10.00;10.00;;;;;28.29;27.93;101564.25;2104301;28;47358;-55
2022/07/18 03:06:40;;;;;;;;;11.75;11.50;;;;;28.29;27.89;101561.53;2104171;28;47417;-56
2022/07/18 03:07:41;;;;;;;;;9.25;7.50;;;;;28.29;28.01;101561.53;2104187;28;47701;-56
2022/07/18 03:08:41;;;;;;;;;12.25;12.25;;;;;28.29;28.08;101557.91;2103591;28;48406;-55
2022/07/18 03:09:41;;;;;;;;;11.50;10.25;;;;;28.28;27.76;101557.06;2086197;28;47511;-57
2022/07/18 03:10:42;;;;;;;;;12.50;10.25;;;;;28.26;28.14;101561.75;2085823;28;47101;-57
2022/07/18 03:11:42;;;;;;;;;9.25;9.25;;;;;28.24;27.89;101557.41;2104521;27;47422;-57
2022/07/18 03:12:43;;;;;;;;;12.00;11.50;;;;;28.22;28.20;101554.81;2104183;28;47513;-56
2022/07/18 03:13:43;;;;;;;;;11.50;10.75;;;;;28.20;27.92;101562.25;2104157;28;47029;-57
2022/07/18 03:14:44;;;;;;;;;12.00;11.00;;;;;28.19;27.84;101555.03;2103595;28;46192;-56
2022/07/18 03:15:44;;;;;;;;;11.00;11.00;;;;;28.17;28.24;101561.63;2104960;27;47507;-57
2022/07/18 03:16:44;;;;;;;;;12.50;12.50;;;;;28.14;28.35;101557.31;2104910;28;45069;-58
2022/07/18 03:17:45;;;;;;;;;10.75;10.75;;;;;28.12;28.07;101554.72;2104346;28;45620;-57
2022/07/18 03:18:45;;;;;;;;;11.00;11.00;;;;;28.10;28.30;101559.44;2103760;28;47272;-56
2022/07/18 03:19:45;;;;;;;;;13.00;12.00;;;;;28.09;28.34;101552.22;2104228;28;47702;-56
2022/07/18 03:20:46;;;;;;;;;10.75;10.00;;;;;28.09;27.93;101552.22;2104359;28;47140;-57
2022/07/18 03:21:47;;;;;;;;;13.00;11.00;;;;;28.09;28.35;101556.81;2104283;28;47287;-56
2022/07/18 03:22:47;;;;;;;;;12.00;12.00;;;;;28.09;28.30;101548.63;2094543;28;47859;-58
2022/07/18 03:23:47;;;;;;;;;12.75;12.75;;;;;28.08;28.21;101549.63;2094996;28;47820;-56
2022/07/18 03:24:48;;;;;;;;;11.75;11.75;;;;;28.07;28.44;101539.69;2103956;28;47798;-57
2022/07/18 03:25:48;;;;;;;;;10.25;10.00;;;;;28.06;28.57;101537.94;2104057;28;47385;-55
2022/07/18 03:26:49;;;;;;;;;10.50;10.00;;;;;28.02;28.48;101540.06;2104273;28;48047;-56
2022/07/18 03:27:49;;;;;;;;;8.00;8.00;;;;;28.01;28.20;101530.16;2103683;28;47364;-56
2022/07/18 03:28:49;;;;;;;;;10.25;10.25;;;;;27.99;28.92;101534.88;2104015;28;46199;-54
2022/07/18 03:29:50;;;;;;;;;11.25;11.25;;;;;27.98;28.86;101533.16;2103865;28;47791;-57
2022/07/18 03:30:50;;;;;;;;;12.00;12.00;;;;;27.96;28.32;101528.81;2103795;28;47577;-56
2022/07/18 03:31:51;;;;;;;;;11.75;11.75;;;;;27.96;28.84;101537.88;2104235;28;47425;-55
2022/07/18 03:32:51;;;;;;;;;12.75;11.75;;;;;27.95;28.87;101536.13;2104024;28;47398;-56
2022/07/18 03:33:52;;;;;;;;;9.50;9.50;;;;;27.94;28.43;101536.22;2104112;28;48105;-56
2022/07/18 03:34:52;;;;;;;;;11.25;10.75;;;;;27.91;28.83;101544.66;2103767;28;47439;-56
2022/07/18 03:35:53;;;;;;;;;11.50;11.00;;;;;27.88;28.34;101534.88;2086392;28;46574;-57
2022/07/18 03:36:53;;;;;;;;;10.50;10.50;;;;;27.86;28.95;101531.41;2080382;28;47861;-57
2022/07/18 03:37:53;;;;;;;;;12.50;10.75;;;;;27.84;28.49;101537.00;2103793;28;47801;-57
2022/07/18 03:38:54;;;;;;;;;13.00;13.00;;;;;27.83;28.98;101529.81;2104112;28;47520;-57
2022/07/18 03:39:54;;;;;;;;;12.75;12.00;;;;;27.81;29.10;101525.44;2104121;28;47185;-58
2022/07/18 03:40:55;;;;;;;;;8.75;8.75;;;;;27.80;28.77;101521.00;2104074;28;47255;-57
2022/07/18 03:41:55;;;;;;;;;13.00;13.00;;;;;27.79;29.07;101527.44;2103918;28;48180;-57
2022/07/18 03:42:55;;;;;;;;;10.75;10.75;;;;;27.77;29.20;101522.13;2104075;28;47653;-57
2022/07/18 03:43:56;;;;;;;;;12.50;11.25;;;;;27.76;28.75;101523.09;2104017;28;47477;-56
2022/07/18 03:44:56;;;;;;;;;11.50;11.50;;;;;27.74;28.71;101527.81;2104235;28;47689;-57
2022/07/18 03:45:57;;;;;;;;;12.25;11.25;;;;;27.74;29.16;101524.22;2104117;28;47334;-56
2022/07/18 03:46:57;;;;;;;;;11.75;11.50;;;;;27.71;29.02;101522.63;2103919;28;47502;-57
2022/07/18 03:47:58;;;;;;;;;12.75;12.00;;;;;27.70;29.49;101520.91;2103915;28;48093;-55
2022/07/18 03:48:58;;;;;;;;;11.00;9.75;;;;;27.71;29.10;101521.75;2103685;28;47318;-57
2022/07/18 03:49:59;;;;;;;;;11.50;11.50;;;;;27.70;29.10;101518.16;2104001;28;47550;-57
2022/07/18 03:50:59;;;;;;;;;11.75;11.00;;;;;27.71;29.15;101521.75;2103852;28;47557;-56
2022/07/18 03:52:00;;;;;;;;;10.40;10.00;;;;;27.71;29.19;101513.59;2104048;28;46429;-57
2022/07/18 03:53:00;;;;;;;;;13.00;13.00;;;;;27.71;28.83;101525.34;2102939;28;47755;-56
2022/07/18 03:54:01;;;;;;;;;12.00;10.00;;;;;27.71;29.12;101521.75;2104061;28;47628;-56
2022/07/18 03:55:03;;;;;;;;;9.00;9.00;;;;;27.70;28.86;101526.34;2099219;28;47466;-57
2022/07/18 03:56:03;;;;;;;;;12.40;12.20;;;;;27.72;29.37;101527.09;2094697;28;47189;-57
2022/07/18 03:57:04;;;;;;;;;11.00;11.00;;;;;27.72;29.52;101527.09;2095019;28;47812;-57
2022/07/18 03:58:04;;;;;;;;;10.50;10.50;;;;;27.72;28.80;101528.94;2091966;28;45783;-57
2022/07/18 03:59:05;;;;;;;;;13.50;12.50;;;;;27.73;28.98;101527.97;2094860;28;47509;-56
2022/07/18 04:00:09;;;;;;;;;13.00;11.25;;;;;27.74;28.52;101526.97;2103315;28;47253;-56
2022/07/18 04:01:09;;;;;;;;;12.80;12.60;;;;;27.74;28.86;101527.81;2093409;28;47631;-56
2022/07/18 04:02:10;;;;;;;;;10.75;10.75;;;;;27.73;29.29;101528.81;2093251;28;47744;-54
2022/07/18 04:03:10;;;;;;;;;13.00;12.00;;;;;27.74;29.08;101533.28;2101746;28;47781;-57
2022/07/18 04:04:10;;;;;;;;;11.00;11.00;;;;;27.74;29.44;101529.69;2094224;28;47924;-57
2022/07/18 04:05:12;;;;;;;;;10.25;10.25;;;;;27.72;29.41;101532.53;2094683;28;47381;-58
2022/07/18 04:06:13;;;;;;;;;13.00;12.60;;;;;27.71;29.33;101535.41;2104190;28;47828;-56
2022/07/18 04:07:13;;;;;;;;;12.00;10.75;;;;;27.71;29.42;101538.13;2094962;28;47691;-56
2022/07/18 04:08:13;;;;;;;;;12.50;12.00;;;;;27.70;29.35;101531.81;2094570;28;48290;-54
2022/07/18 04:09:14;;;;;;;;;11.50;10.25;;;;;27.70;29.16;101537.25;2102387;28;47388;-56
2022/07/18 04:10:14;;;;;;;;;14.00;10.50;;;;;27.70;29.35;101537.25;2103142;28;47124;-55
2022/07/18 04:11:15;;;;;;;;;12.75;10.50;;;;;27.71;29.62;101540.84;2095050;28;47443;-54
2022/07/18 04:12:15;;;;;;;;;12.00;12.00;;;;;27.70;29.14;101540.00;2095055;28;47675;-60
2022/07/18 04:13:15;;;;;;;;;11.50;11.00;;;;;27.72;29.59;101546.19;2083570;28;48146;-56
2022/07/18 04:14:16;;;;;;;;;11.75;10.75;;;;;27.72;29.35;101550.78;2086315;28;47327;-57
2022/07/18 04:15:17;;;;;;;;;11.00;11.00;;;;;27.72;29.33;101543.44;2103941;27;47530;-56
2022/07/18 04:16:18;;;;;;;;;12.00;11.00;;;;;27.72;29.38;101539.88;2103856;27;47720;-56
2022/07/18 04:17:18;;;;;;;;;13.50;12.50;;;;;27.73;29.12;101549.78;2103764;28;47968;-56
2022/07/18 04:18:19;;;;;;;;;11.75;10.50;;;;;27.73;29.77;101541.59;2103605;28;47985;-56
2022/07/18 04:19:19;;;;;;;;;11.75;11.00;;;;;27.73;29.61;101552.50;2103628;28;47538;-56
2022/07/18 04:20:20;;;;;;;;;10.00;9.75;;;;;27.73;29.50;101549.78;2103876;28;47196;-57
2022/07/18 04:21:21;;;;;;;;;10.00;10.00;;;;;27.74;29.31;101557.84;2103794;28;48199;-55
2022/07/18 04:22:21;;;;;;;;;13.00;12.00;;;;;27.74;29.64;101559.69;2103650;27;47858;-55
2022/07/18 04:23:22;;;;;;;;;10.50;10.50;;;;;27.74;29.63;101562.41;2105008;28;47607;-56
2022/07/18 04:24:22;;;;;;;;;14.75;11.75;;;;;27.75;29.53;101561.41;2096493;28;47491;-56
2022/07/18 04:25:27;;;;;;;;;12.75;11.75;;;;;27.75;29.03;101562.28;2096404;28;47880;-56
2022/07/18 04:26:28;;;;;;;;;13.80;13.80;;;;;27.75;29.48;101562.28;2105278;28;47540;-56
2022/07/18 04:27:28;;;;;;;;;11.75;11.75;;;;;27.75;29.14;101559.56;2104454;28;47859;-56
2022/07/18 04:28:28;;;;;;;;;11.50;11.50;;;;;27.75;29.31;101556.84;2104807;28;47969;-55
2022/07/18 04:29:31;;;;;;;;;14.75;12.25;;;;;27.75;29.33;101545.06;2105290;28;47544;-55
2022/07/18 04:30:32;;;;;;;;;11.60;10.80;;;;;27.75;29.34;101537.75;2105411;28;47695;-54
2022/07/18 04:31:32;;;;;;;;;11.60;11.20;;;;;27.75;29.04;101542.34;2105278;28;47999;-57
2022/07/18 04:32:33;;;;;;;;;10.75;9.75;;;;;27.74;29.41;101535.16;2105458;28;47482;-55
2022/07/18 04:33:33;;;;;;;;;12.75;12.00;;;;;27.74;29.12;101532.41;2078877;28;47137;-56
2022/07/18 04:34:34;;;;;;;;;12.25;12.25;;;;;27.73;29.88;101526.09;2079342;28;47595;-54
2022/07/18 04:35:35;;;;;;;;;12.75;12.50;;;;;27.72;28.88;101520.78;2104247;28;48048;-55
2022/07/18 04:36:36;;;;;;;;;11.20;11.20;;;;;27.70;29.53;101517.31;2105086;28;47778;-54
2022/07/18 04:37:38;;;;;;;;;14.00;13.00;;;;;27.69;29.04;101510.09;2099827;28;47562;-56
2022/07/18 04:38:39;;;;;;;;;10.20;10.20;;;;;27.66;29.13;101508.47;2104602;28;47961;-54
2022/07/18 04:39:39;;;;;;;;;13.00;12.00;;;;;27.63;29.46;101505.09;2105010;28;47685;-56
2022/07/18 04:40:39;;;;;;;;;13.00;13.00;;;;;27.59;29.92;101499.03;2095593;28;47640;-55
2022/07/18 04:41:40;;;;;;;;;11.50;11.25;;;;;27.55;29.95;101497.53;2095740;28;47874;-54